createdAt,value
2022-08-16T00:02:43.118Z,24.40
2022-08-16T00:07:44.991Z,24.40
2022-08-16T00:12:43.966Z,24.40
2022-08-16T00:17:56.504Z,24.30
2022-08-16T00:22:55.426Z,24.30
2022-08-16T00:27:54.151Z,24.30
2022-08-16T00:32:58.548Z,24.20
2022-08-16T00:37:59.478Z,24.20
2022-08-16T00:42:58.464Z,24.20
2022-08-16T00:47:58.054Z,24.10
2022-08-16T00:52:56.400Z,24.10
2022-08-16T00:57:58.621Z,24.10
2022-08-16T01:03:02.127Z,24.10
2022-08-16T01:08:05.209Z,24.10
2022-08-16T01:13:26.749Z,24.00
2022-08-16T01:18:40.508Z,24.00
2022-08-16T01:24:01.383Z,24.00
2022-08-16T01:29:04.435Z,24.00
2022-08-16T01:34:02.830Z,23.90
2022-08-16T01:39:13.029Z,23.90
2022-08-16T01:44:12.787Z,23.90
2022-08-16T01:49:21.381Z,23.90
2022-08-16T01:54:30.624Z,23.90
2022-08-16T01:59:30.672Z,23.90
2022-08-16T02:04:49.627Z,23.90
2022-08-16T02:09:59.040Z,23.90
2022-08-16T02:15:10.548Z,23.90
2022-08-16T02:20:11.541Z,23.90
2022-08-16T02:25:14.779Z,23.90
2022-08-16T02:30:37.473Z,23.90
2022-08-16T02:35:54.063Z,23.90
2022-08-16T02:41:00.634Z,23.80
2022-08-16T02:46:02.391Z,23.80
2022-08-16T02:51:11.224Z,23.80
2022-08-16T02:56:15.278Z,23.80
2022-08-16T03:01:24.836Z,23.80
2022-08-16T03:06:41.392Z,23.80
2022-08-16T03:11:52.326Z,23.80
2022-08-16T03:16:58.566Z,23.70
2022-08-16T03:21:58.726Z,23.70
2022-08-16T03:27:00.381Z,23.70
2022-08-16T03:32:02.507Z,23.70
2022-08-16T03:37:03.690Z,23.70
2022-08-16T03:42:09.717Z,23.70
2022-08-16T03:47:10.037Z,23.60
2022-08-16T03:52:09.833Z,23.60
2022-08-16T03:57:11.376Z,23.60
2022-08-16T04:02:22.303Z,23.60
2022-08-16T04:07:33.469Z,23.60
2022-08-16T04:12:53.414Z,23.60
2022-08-16T04:17:54.885Z,23.60
2022-08-16T04:22:53.672Z,23.60
2022-08-16T04:27:55.982Z,23.60
2022-08-16T04:32:55.769Z,23.60
2022-08-16T04:37:55.745Z,23.50
2022-08-16T04:43:00.650Z,23.50
2022-08-16T04:48:01.115Z,23.50
2022-08-16T04:53:06.756Z,23.50
2022-08-16T04:58:44.723Z,23.50
2022-08-16T05:03:29.867Z,23.50
2022-08-16T05:08:31.160Z,23.50
2022-08-16T05:13:41.717Z,23.50
2022-08-16T05:18:43.929Z,23.50
2022-08-16T05:23:45.480Z,23.60
2022-08-16T05:28:57.779Z,23.60
2022-08-16T05:33:56.300Z,23.60
2022-08-16T05:38:56.490Z,23.60
2022-08-16T05:44:01.274Z,23.60
2022-08-16T05:49:10.667Z,23.70
2022-08-16T05:54:17.352Z,23.70
2022-08-16T05:59:27.536Z,23.70
2022-08-16T06:04:35.384Z,23.80
2022-08-16T06:09:43.374Z,23.80
2022-08-16T06:14:45.973Z,23.90
2022-08-16T06:19:44.774Z,23.90
2022-08-16T06:24:53.521Z,24.10
2022-08-16T06:29:55.747Z,24.10
2022-08-16T06:34:57.257Z,24.20
2022-08-16T06:40:02.628Z,24.30
2022-08-16T06:45:09.585Z,24.40
2022-08-16T06:50:28.427Z,24.50
2022-08-16T06:55:34.370Z,24.60
2022-08-16T07:00:39.363Z,24.70
2022-08-16T07:05:43.036Z,24.80
2022-08-16T07:10:56.568Z,24.90
2022-08-16T07:15:59.386Z,25.00
2022-08-16T07:21:02.207Z,25.10
2022-08-16T07:26:03.642Z,25.20
2022-08-16T07:31:03.454Z,25.40
2022-08-16T07:36:06.336Z,25.60
2022-08-16T07:41:10.059Z,25.80
2022-08-16T07:46:37.848Z,25.90
2022-08-16T07:51:42.430Z,26.00
2022-08-16T07:56:41.696Z,26.10
2022-08-16T08:01:41.362Z,26.40
2022-08-16T08:06:41.868Z,26.50
2022-08-16T08:12:00.703Z,26.70
2022-08-16T08:17:08.602Z,26.80
2022-08-16T08:22:09.395Z,27.00
2022-08-16T08:27:23.861Z,27.10
2022-08-16T08:32:57.087Z,27.30
2022-08-16T08:37:54.068Z,27.40
2022-08-16T08:43:00.412Z,27.50
2022-08-16T08:48:02.115Z,27.70
2022-08-16T08:53:06.448Z,27.80
2022-08-16T08:58:05.775Z,27.90
2022-08-16T09:10:20.865Z,28.40
2022-08-16T09:15:21.725Z,28.40
2022-08-16T09:20:23.535Z,28.50
2022-08-16T09:25:25.854Z,28.70
2022-08-16T09:30:34.749Z,28.70
2022-08-16T09:35:42.563Z,28.80
2022-08-16T09:47:13.433Z,28.80
2022-08-16T09:52:12.048Z,28.70
2022-08-16T09:57:12.132Z,28.80
2022-08-16T10:02:26.135Z,28.90
2022-08-16T10:07:44.472Z,29.10
2022-08-16T10:13:01.013Z,29.30
2022-08-16T10:18:02.536Z,29.50
2022-08-16T10:30:00.732Z,30.10
2022-08-16T10:35:52.484Z,30.30
2022-08-16T10:40:50.775Z,30.50
2022-08-16T10:46:00.013Z,30.80
2022-08-16T10:50:59.757Z,31.00
2022-08-16T10:56:01.282Z,31.20
2022-08-16T11:01:24.997Z,31.40
2022-08-16T11:06:21.457Z,31.50
2022-08-16T11:11:26.239Z,31.70
2022-08-16T11:17:02.251Z,31.80
2022-08-16T11:27:24.103Z,32.30
2022-08-16T11:32:29.730Z,32.50
2022-08-16T11:38:04.419Z,32.70
2022-08-16T11:42:47.000Z,32.90
2022-08-16T11:47:48.074Z,33.00
2022-08-16T11:52:46.831Z,33.40
2022-08-16T11:57:45.111Z,33.60
2022-08-16T12:02:45.977Z,34.00
2022-08-16T12:07:47.591Z,34.20
2022-08-16T12:12:47.746Z,34.30
2022-08-16T12:17:46.075Z,34.40
2022-08-16T12:22:44.386Z,34.40
2022-08-16T12:27:47.230Z,34.30
2022-08-16T12:32:56.751Z,34.20
2022-08-16T12:37:57.240Z,34.10
2022-08-16T12:42:59.720Z,34.10
2022-08-16T12:48:33.464Z,34.00
2022-08-16T12:53:34.629Z,34.00
2022-08-16T12:58:49.081Z,33.90
2022-08-16T13:03:49.468Z,33.80
2022-08-16T13:08:55.524Z,33.70
2022-08-16T13:13:58.353Z,33.50
2022-08-16T13:18:56.539Z,33.30
2022-08-16T13:23:55.522Z,33.10
2022-08-16T13:28:54.345Z,32.80
2022-08-16T13:33:54.481Z,32.40
2022-08-16T13:39:59.608Z,32.20
2022-08-16T13:44:58.648Z,32.00
2022-08-16T13:49:58.288Z,31.70
2022-08-16T13:54:57.203Z,31.60
2022-08-16T13:59:57.588Z,31.60
2022-08-16T14:05:02.807Z,31.60
2022-08-16T14:10:03.912Z,31.60
2022-08-16T14:15:02.861Z,31.70
2022-08-16T14:20:02.591Z,31.80
2022-08-16T14:25:03.017Z,32.00
2022-08-16T14:30:02.099Z,31.90
2022-08-16T14:35:04.077Z,31.70
2022-08-16T14:40:03.339Z,31.60
2022-08-16T14:45:01.767Z,31.60
2022-08-16T14:49:59.976Z,31.70
2022-08-16T14:54:59.598Z,31.70
2022-08-16T15:00:01.978Z,31.60
2022-08-16T15:05:05.582Z,31.60
2022-08-16T15:10:06.581Z,31.60
2022-08-16T15:15:12.366Z,31.50
2022-08-16T15:20:15.777Z,31.40
2022-08-16T15:25:20.493Z,31.40
2022-08-16T15:30:59.724Z,31.40
2022-08-16T15:35:42.507Z,31.30
2022-08-16T15:40:58.470Z,31.20
2022-08-16T15:46:11.058Z,31.10
2022-08-16T15:51:09.768Z,30.80
2022-08-16T15:56:09.538Z,30.50
2022-08-16T16:01:11.938Z,30.40
2022-08-16T16:06:10.946Z,30.20
2022-08-16T16:11:12.621Z,30.00
2022-08-16T16:16:16.382Z,29.90
2022-08-16T16:21:53.856Z,29.70
2022-08-16T16:27:18.713Z,29.70
2022-08-16T16:32:34.153Z,29.60
2022-08-16T16:37:33.166Z,29.60
2022-08-16T16:42:35.542Z,29.60
2022-08-16T16:47:42.520Z,29.60
2022-08-16T16:52:45.074Z,29.60
2022-08-16T16:58:03.153Z,29.60
2022-08-16T17:03:01.704Z,29.60
2022-08-16T17:08:01.657Z,29.50
2022-08-16T17:13:05.375Z,29.50
2022-08-16T17:19:14.412Z,29.50
2022-08-16T17:23:23.681Z,29.40
2022-08-16T17:28:58.547Z,29.40
2022-08-16T17:33:59.971Z,29.40
2022-08-16T17:39:03.782Z,29.30
2022-08-16T17:44:03.798Z,29.20
2022-08-16T17:49:02.013Z,29.20
2022-08-16T17:54:00.189Z,29.10
2022-08-16T17:58:58.310Z,29.00
2022-08-16T18:04:07.036Z,28.90
2022-08-16T18:09:08.946Z,28.90
2022-08-16T18:14:08.851Z,28.80
2022-08-16T18:19:08.665Z,28.70
2022-08-16T18:24:07.122Z,28.70
2022-08-16T18:29:05.809Z,28.60
2022-08-16T18:34:04.201Z,28.60
2022-08-16T18:39:04.279Z,28.50
2022-08-16T18:44:22.707Z,28.40
2022-08-16T18:49:21.058Z,28.30
2022-08-16T18:54:20.779Z,28.20
2022-08-16T18:59:19.307Z,28.20
2022-08-16T19:04:55.502Z,28.10
2022-08-16T19:09:38.098Z,28.00
2022-08-16T19:14:36.337Z,27.90
2022-08-16T19:19:34.476Z,27.90
2022-08-16T19:24:32.668Z,27.80
2022-08-16T19:29:32.313Z,27.70
2022-08-16T19:34:30.927Z,27.70
2022-08-16T19:39:32.558Z,27.60
2022-08-16T19:44:32.457Z,27.50
2022-08-16T19:49:30.666Z,27.50
2022-08-16T19:54:28.862Z,27.40
2022-08-16T19:59:42.036Z,27.30
2022-08-16T20:04:40.288Z,27.30
2022-08-16T20:09:38.892Z,27.10
2022-08-16T20:14:37.073Z,27.10
2022-08-16T20:19:40.340Z,27.00
2022-08-16T20:24:38.786Z,26.90
2022-08-16T20:29:38.659Z,26.80
2022-08-16T20:34:38.535Z,26.80
2022-08-16T20:39:38.756Z,26.70
2022-08-16T20:44:36.978Z,26.60
2022-08-16T20:49:35.186Z,26.50
2022-08-16T20:54:34.662Z,26.40
2022-08-16T20:59:32.916Z,26.30
2022-08-16T21:05:40.722Z,26.30
2022-08-16T21:10:40.221Z,26.30
2022-08-16T21:15:38.394Z,26.20
2022-08-16T21:20:36.673Z,26.10
2022-08-16T21:25:36.359Z,26.00
2022-08-16T21:30:40.049Z,25.90
2022-08-16T21:35:39.146Z,25.90
2022-08-16T21:40:40.237Z,25.80
2022-08-16T21:45:41.232Z,25.70
2022-08-16T21:50:41.453Z,25.70
2022-08-16T21:55:40.913Z,25.60
2022-08-16T22:00:43.567Z,25.60
2022-08-16T22:05:45.184Z,25.60
2022-08-16T22:11:06.371Z,25.50
2022-08-16T22:16:07.697Z,25.40
2022-08-16T22:21:06.074Z,25.30
2022-08-16T22:26:04.642Z,25.30
2022-08-16T22:31:03.089Z,25.20
2022-08-16T22:36:05.166Z,25.20
2022-08-16T22:41:05.153Z,25.10
2022-08-16T22:46:03.396Z,25.10
2022-08-16T22:51:03.840Z,25.00
2022-08-16T22:56:02.104Z,25.00
2022-08-16T23:01:00.371Z,24.90
2022-08-16T23:06:00.814Z,24.90
2022-08-16T23:11:00.516Z,24.80
2022-08-16T23:16:02.177Z,24.80
2022-08-16T23:21:03.487Z,24.70
2022-08-16T23:26:44.500Z,24.60
2022-08-16T23:31:23.643Z,24.60
2022-08-16T23:36:21.864Z,24.60
2022-08-16T23:41:21.510Z,24.50
2022-08-16T23:46:20.521Z,24.40
2022-08-16T23:51:19.206Z,24.40
2022-08-16T23:56:20.798Z,24.40
